Time;durP1;ratioP1;P1;durP2;ratioP2;P2;SDS_P1;SDS_P2;PMS_P1;PMS_P2;Temp;Humidity;BMP_temperature;BMP_pressure;BME280_temperature;BME280_humidity;BME280_pressure;Samples;Min_cycle;Max_cycle;Signal;HPM_P1;HPM_P2
2023/05/27 00:02:14;;;;;;;5.70;2.90;;;;;;;;;;5010947;28;20634;-31
2023/05/27 00:04:41;;;;;;;5.00;2.93;;;;;;;;;;5025868;28;20232;-34
2023/05/27 00:07:09;;;;;;;8.13;3.07;;;;;;;;;;5029362;28;20220;-33
2023/05/27 00:09:36;;;;;;;5.03;2.93;;;;;;;;;;5018284;28;20201;-38
2023/05/27 00:12:03;;;;;;;7.87;3.07;;;;;;;;;;5024436;28;20543;-33
2023/05/27 00:14:32;;;;;;;9.43;3.10;;;;;;;;;;5016889;28;20201;-33
2023/05/27 00:17:01;;;;;;;5.13;2.40;;;;;;;;;;5010067;28;20223;-29
2023/05/27 00:19:29;;;;;;;6.73;3.07;;;;;;;;;;5012412;28;20293;-38
2023/05/27 00:21:56;;;;;;;6.37;2.77;;;;;;;;;;5027979;28;20231;-38
2023/05/27 00:24:23;;;;;;;5.13;2.90;;;;;;;;;;5025795;28;20511;-37
2023/05/27 02:32:50;;;;;;;7.70;2.50;;;;;;;;;;5540621;22;21595;-33
2023/05/27 02:35:18;;;;;;;5.33;2.80;;;;;;;;;;5047009;28;20629;-34
2023/05/27 02:37:45;;;;;;;6.43;2.40;;;;;;;;;;5032531;28;20237;-33
2023/05/27 02:40:12;;;;;;;5.97;2.40;;;;;;;;;;5031280;28;20211;-36
2023/05/27 02:42:40;;;;;;;4.97;2.60;;;;;;;;;;5023566;28;20211;-33
2023/05/27 02:45:07;;;;;;;6.33;2.53;;;;;;;;;;5020307;28;20205;-31
2023/05/27 02:47:34;;;;;;;6.60;2.77;;;;;;;;;;5020807;28;20218;-35
2023/05/27 02:50:03;;;;;;;9.43;2.87;;;;;;;;;;5029790;28;20207;-35
2023/05/27 02:52:30;;;;;;;6.90;2.57;;;;;;;;;;5030296;28;20302;-33
2023/05/27 02:54:57;;;;;;;6.30;2.63;;;;;;;;;;5018679;28;20238;-33
2023/05/27 02:57:24;;;;;;;6.93;2.87;;;;;;;;;;5029329;28;20209;-34
2023/05/27 02:59:51;;;;;;;7.10;2.60;;;;;;;;;;5030606;28;20217;-31
2023/05/27 03:02:18;;;;;;;6.70;2.60;;;;;;;;;;5020938;28;20209;-35
2023/05/27 03:04:45;;;;;;;7.83;2.93;;;;;;;;;;5027446;28;20230;-34
2023/05/27 03:07:14;;;;;;;8.50;2.90;;;;;;;;;;5030114;28;20237;-35
2023/05/27 03:09:41;;;;;;;6.23;2.27;;;;;;;;;;5030235;28;20207;-33
2023/05/27 03:12:08;;;;;;;6.20;2.37;;;;;;;;;;5022087;28;20218;-32
2023/05/27 03:14:35;;;;;;;5.43;2.77;;;;;;;;;;5025336;28;20194;-34
2023/05/27 03:17:02;;;;;;;6.03;2.53;;;;;;;;;;5026541;28;20233;-31
2023/05/27 03:19:29;;;;;;;5.60;2.77;;;;;;;;;;5029031;28;20222;-35
2023/05/27 03:21:57;;;;;;;9.10;2.77;;;;;;;;;;5029612;28;20199;-32
2023/05/27 03:24:25;;;;;;;7.43;3.30;;;;;;;;;;5027899;28;20223;-32
2023/05/27 03:26:52;;;;;;;5.27;2.70;;;;;;;;;;5019822;28;20701;-33
2023/05/27 03:29:19;;;;;;;8.20;3.20;;;;;;;;;;5029211;28;20191;-32
2023/05/27 03:31:46;;;;;;;7.63;2.93;;;;;;;;;;5026058;28;20207;-33
2023/05/27 03:34:13;;;;;;;6.23;3.17;;;;;;;;;;5030346;28;20293;-33
2023/05/27 03:36:42;;;;;;;6.93;2.97;;;;;;;;;;5033358;28;20226;-34
2023/05/27 03:39:09;;;;;;;5.87;3.10;;;;;;;;;;5031163;28;20202;-34
2023/05/27 03:41:38;;;;;;;6.13;2.33;;;;;;;;;;5019317;28;20207;-35
2023/05/27 03:44:05;;;;;;;5.03;2.60;;;;;;;;;;5023840;28;20211;-36
2023/05/27 03:46:32;;;;;;;8.80;3.23;;;;;;;;;;5022235;28;20224;-32
2023/05/27 03:49:00;;;;;;;5.77;2.70;;;;;;;;;;5028813;28;20194;-34
2023/05/27 03:51:27;;;;;;;10.07;2.87;;;;;;;;;;5031249;28;20199;-34
2023/05/27 03:53:54;;;;;;;8.60;2.43;;;;;;;;;;5029430;28;20200;-32
2023/05/27 03:56:21;;;;;;;5.43;3.10;;;;;;;;;;5023941;28;20310;-36
2023/05/27 03:58:51;;;;;;;6.20;2.53;;;;;;;;;;5032871;28;20285;-32
2023/05/27 04:01:20;;;;;;;4.73;2.63;;;;;;;;;;5027975;28;20277;-32
2023/05/27 04:03:47;;;;;;;5.13;2.30;;;;;;;;;;5027222;28;20380;-32
2023/05/27 04:06:15;;;;;;;11.30;3.53;;;;;;;;;;5031798;28;20266;-32
2023/05/27 04:08:42;;;;;;;7.60;3.20;;;;;;;;;;5032106;28;20490;-36
2023/05/27 04:11:12;;;;;;;6.00;3.00;;;;;;;;;;5025625;28;20215;-35
2023/05/27 04:13:39;;;;;;;5.20;2.60;;;;;;;;;;5027638;28;20203;-32
2023/05/27 04:16:08;;;;;;;7.07;2.37;;;;;;;;;;5017199;28;20229;-36
2023/05/27 04:18:36;;;;;;;5.00;2.77;;;;;;;;;;5025330;28;20295;-33
2023/05/27 04:21:04;;;;;;;6.43;2.90;;;;;;;;;;5031658;28;20272;-35
2023/05/27 04:23:31;;;;;;;7.10;2.70;;;;;;;;;;5027982;28;20299;-34
2023/05/27 04:25:58;;;;;;;5.43;2.30;;;;;;;;;;5022994;28;20243;-32
2023/05/27 04:28:25;;;;;;;7.20;2.87;;;;;;;;;;5031902;28;20206;-34
2023/05/27 04:30:53;;;;;;;8.37;3.70;;;;;;;;;;5025679;28;20626;-31
2023/05/27 04:33:22;;;;;;;8.67;3.03;;;;;;;;;;5023225;28;20217;-33
2023/05/27 04:35:49;;;;;;;7.70;2.93;;;;;;;;;;5030813;28;20222;-32
2023/05/27 04:38:17;;;;;;;7.83;3.07;;;;;;;;;;5031681;28;20207;-32
2023/05/27 04:40:45;;;;;;;7.30;2.90;;;;;;;;;;5021992;28;20203;-35
2023/05/27 04:43:14;;;;;;;6.00;2.70;;;;;;;;;;5030425;28;20248;-33
2023/05/27 04:45:41;;;;;;;5.47;2.83;;;;;;;;;;5032195;28;20312;-33
2023/05/27 04:48:08;;;;;;;8.23;3.03;;;;;;;;;;5031820;28;20203;-35
2023/05/27 04:50:37;;;;;;;5.97;2.70;;;;;;;;;;5037391;28;20526;-30
2023/05/27 04:53:04;;;;;;;6.30;2.90;;;;;;;;;;5036278;28;20209;-33
2023/05/27 04:55:32;;;;;;;4.57;2.80;;;;;;;;;;5029818;28;20314;-35
2023/05/27 04:58:02;;;;;;;6.63;2.70;;;;;;;;;;5027981;28;20207;-34
2023/05/27 05:00:38;;;;;;;9.07;3.10;;;;;;;;;;5032301;28;20205;-33
2023/05/27 05:03:07;;;;;;;4.03;2.43;;;;;;;;;;5030217;28;20276;-34
2023/05/27 05:05:34;;;;;;;5.53;2.53;;;;;;;;;;5034592;28;20222;-31
2023/05/27 05:08:04;;;;;;;8.60;3.53;;;;;;;;;;5035470;28;20214;-34
2023/05/27 05:10:31;;;;;;;6.47;2.77;;;;;;;;;;5030825;28;20207;-34
2023/05/27 05:12:58;;;;;;;6.10;2.77;;;;;;;;;;5028998;28;20212;-34
2023/05/27 05:15:25;;;;;;;6.87;2.83;;;;;;;;;;5032305;28;20227;-31
2023/05/27 05:17:52;;;;;;;11.80;3.60;;;;;;;;;;5032010;28;20203;-31
2023/05/27 05:20:19;;;;;;;7.40;3.03;;;;;;;;;;5034557;28;20209;-34
2023/05/27 05:22:46;;;;;;;8.57;2.30;;;;;;;;;;5034691;28;20210;-34
2023/05/27 05:25:15;;;;;;;7.07;2.80;;;;;;;;;;5030959;28;20499;-32
2023/05/27 05:27:43;;;;;;;7.50;3.20;;;;;;;;;;5021128;28;20642;-34
2023/05/27 05:30:10;;;;;;;6.77;3.00;;;;;;;;;;5034769;28;20196;-32
2023/05/27 05:32:37;;;;;;;4.50;3.03;;;;;;;;;;5029362;28;20210;-32
2023/05/27 05:35:05;;;;;;;9.50;3.10;;;;;;;;;;5032091;28;20608;-35
2023/05/27 05:37:33;;;;;;;7.53;3.40;;;;;;;;;;5032043;28;20214;-34
2023/05/27 05:40:00;;;;;;;8.00;2.97;;;;;;;;;;5028846;28;20211;-33
2023/05/27 05:42:28;;;;;;;8.27;2.90;;;;;;;;;;5026439;28;20207;-30
2023/05/27 05:44:55;;;;;;;8.27;3.13;;;;;;;;;;5031234;28;20226;-34
2023/05/27 05:47:22;;;;;;;7.27;2.97;;;;;;;;;;5020252;28;20227;-32
2023/05/27 05:49:49;;;;;;;5.83;2.70;;;;;;;;;;5032391;28;20210;-32
2023/05/27 05:52:17;;;;;;;6.43;2.70;;;;;;;;;;5032271;28;20210;-32
2023/05/27 05:54:44;;;;;;;13.00;3.87;;;;;;;;;;5031790;28;20195;-32
2023/05/27 05:57:11;;;;;;;8.10;3.07;;;;;;;;;;5012261;28;20224;-32
2023/05/27 05:59:39;;;;;;;8.10;3.10;;;;;;;;;;5028657;28;20199;-32
2023/05/27 06:02:07;;;;;;;10.20;3.30;;;;;;;;;;5020158;28;20228;-35
2023/05/27 06:04:34;;;;;;;7.10;3.10;;;;;;;;;;5030618;28;20551;-32
2023/05/27 06:07:01;;;;;;;7.93;3.13;;;;;;;;;;5031889;28;20228;-33
2023/05/27 06:09:28;;;;;;;9.27;3.03;;;;;;;;;;5032503;28;20202;-34
2023/05/27 06:11:55;;;;;;;9.23;3.10;;;;;;;;;;5024616;28;20205;-35
2023/05/27 06:14:23;;;;;;;8.23;3.53;;;;;;;;;;5030693;28;20284;-35
2023/05/27 06:16:51;;;;;;;10.67;3.23;;;;;;;;;;5020653;28;20229;-32
2023/05/27 06:19:18;;;;;;;7.53;3.07;;;;;;;;;;5031504;28;20226;-31
2023/05/27 06:21:45;;;;;;;5.90;2.53;;;;;;;;;;5033619;28;20211;-33
2023/05/27 06:24:13;;;;;;;6.00;3.03;;;;;;;;;;5033418;28;20229;-31
2023/05/27 06:26:40;;;;;;;5.77;2.57;;;;;;;;;;5030388;28;20228;-32
2023/05/27 06:29:07;;;;;;;7.87;3.13;;;;;;;;;;5034002;28;20207;-33
2023/05/27 06:31:34;;;;;;;7.70;3.20;;;;;;;;;;5022522;28;20205;-32
2023/05/27 06:34:02;;;;;;;5.70;2.80;;;;;;;;;;5030427;28;20214;-32
2023/05/27 06:36:29;;;;;;;12.10;3.40;;;;;;;;;;5033980;28;20221;-34
2023/05/27 06:38:58;;;;;;;8.83;3.37;;;;;;;;;;5034337;28;20209;-33
2023/05/27 06:41:25;;;;;;;6.93;3.00;;;;;;;;;;5019323;28;20300;-33
2023/05/27 06:43:52;;;;;;;8.70;3.73;;;;;;;;;;5031397;28;20217;-34
2023/05/27 06:46:19;;;;;;;10.07;3.43;;;;;;;;;;5025988;28;20229;-32
2023/05/27 06:48:46;;;;;;;9.30;3.03;;;;;;;;;;5030669;28;20215;-34
2023/05/27 06:51:15;;;;;;;10.73;3.37;;;;;;;;;;5033147;28;20206;-32
2023/05/27 06:53:42;;;;;;;6.87;3.17;;;;;;;;;;5033542;28;20232;-35
2023/05/27 06:56:09;;;;;;;6.37;2.53;;;;;;;;;;5024676;28;20226;-34
2023/05/27 06:58:36;;;;;;;6.10;2.70;;;;;;;;;;5032457;28;20259;-33
2023/05/27 07:01:04;;;;;;;6.20;3.00;;;;;;;;;;5028093;28;20190;-34
2023/05/27 07:03:31;;;;;;;8.63;3.53;;;;;;;;;;5029072;28;20199;-31
2023/05/27 07:05:58;;;;;;;8.50;3.42;;;;;;;;;;5032638;28;20222;-31
2023/05/27 07:08:26;;;;;;;7.40;3.00;;;;;;;;;;5028582;28;20216;-32
2023/05/27 07:10:53;;;;;;;8.37;2.93;;;;;;;;;;5031276;28;20209;-31
2023/05/27 07:13:20;;;;;;;12.15;3.78;;;;;;;;;;5032960;28;20202;-31
2023/05/27 07:15:48;;;;;;;6.38;3.30;;;;;;;;;;5027869;28;20221;-29
2023/05/27 07:18:15;;;;;;;11.45;3.70;;;;;;;;;;5028004;28;20222;-31
2023/05/27 07:20:42;;;;;;;8.88;3.47;;;;;;;;;;5032843;28;20203;-33
2023/05/27 07:23:09;;;;;;;10.02;3.67;;;;;;;;;;5033250;28;20548;-34
2023/05/27 07:25:37;;;;;;;11.77;4.13;;;;;;;;;;5028808;28;20290;-30
2023/05/27 07:28:05;;;;;;;6.95;3.05;;;;;;;;;;5029077;28;20208;-33
2023/05/27 07:30:32;;;;;;;9.75;3.40;;;;;;;;;;5028669;28;20199;-31
2023/05/27 07:32:59;;;;;;;7.90;3.28;;;;;;;;;;5029680;28;20310;-32
2023/05/27 07:35:26;;;;;;;6.55;3.10;;;;;;;;;;5032327;28;20277;-31
2023/05/27 07:37:53;;;;;;;8.30;3.22;;;;;;;;;;5032976;28;20198;-32
2023/05/27 07:40:20;;;;;;;5.40;3.20;;;;;;;;;;5018786;28;20208;-32
2023/05/27 07:42:49;;;;;;;6.40;3.10;;;;;;;;;;5029920;28;20416;-33
2023/05/27 07:45:16;;;;;;;6.05;3.22;;;;;;;;;;5032845;28;20230;-31
2023/05/27 07:47:43;;;;;;;5.63;2.83;;;;;;;;;;5026577;28;20200;-34
2023/05/27 07:50:11;;;;;;;9.57;2.97;;;;;;;;;;5031872;28;20227;-31
2023/05/27 07:52:38;;;;;;;6.70;3.55;;;;;;;;;;5032574;28;20204;-31
2023/05/27 07:55:05;;;;;;;11.70;3.63;;;;;;;;;;5027934;28;20681;-29
2023/05/27 07:57:33;;;;;;;7.15;3.45;;;;;;;;;;5028100;28;20214;-35
2023/05/27 08:00:01;;;;;;;6.00;2.92;;;;;;;;;;5032623;28;20215;-34
2023/05/27 08:02:28;;;;;;;8.13;3.70;;;;;;;;;;5022332;28;20214;-35
2023/05/27 08:04:55;;;;;;;10.23;3.30;;;;;;;;;;5032110;28;20227;-33
2023/05/27 08:07:22;;;;;;;6.45;3.13;;;;;;;;;;5033075;28;20238;-31
2023/05/27 08:09:50;;;;;;;6.30;2.70;;;;;;;;;;5033605;28;20216;-36
2023/05/27 08:12:17;;;;;;;11.23;4.03;;;;;;;;;;5023289;28;20205;-36
2023/05/27 08:14:44;;;;;;;6.65;3.10;;;;;;;;;;5033101;28;20211;-31
2023/05/27 08:17:13;;;;;;;5.50;3.00;;;;;;;;;;5029297;28;20249;-34
2023/05/27 08:19:40;;;;;;;8.43;3.55;;;;;;;;;;5032813;28;20205;-33
2023/05/27 08:22:08;;;;;;;8.45;3.38;;;;;;;;;;5013391;28;20236;-33
2023/05/27 08:24:35;;;;;;;8.75;3.53;;;;;;;;;;5023105;28;20210;-30
2023/05/27 08:27:05;;;;;;;7.07;3.33;;;;;;;;;;5031544;28;20728;-33
2023/05/27 08:29:32;;;;;;;6.75;3.03;;;;;;;;;;5031638;28;20465;-32
2023/05/27 08:32:00;;;;;;;6.80;3.35;;;;;;;;;;5021214;28;20209;-35
2023/05/27 08:34:28;;;;;;;7.22;3.50;;;;;;;;;;5028751;28;20219;-33
2023/05/27 08:58:31;;;;;;;9.05;3.22;;;;;;;;;;4900459;29;20205;-30
2023/05/27 09:01:27;;;;;;;6.53;2.75;;;;;;;;;;5008281;28;20274;-28
2023/05/27 09:10:23;;;;;;;9.27;3.35;;;;;;;;;;5021048;28;20211;-37
2023/05/27 09:13:08;;;;;;;9.60;3.53;;;;;;;;;;5030486;28;20209;-40
2023/05/27 09:16:07;;;;;;;13.48;3.83;;;;;;;;;;5031284;28;20221;-38
2023/05/27 09:24:43;;;;;;;6.80;3.33;;;;;;;;;;5022003;28;20210;-35
2023/05/27 09:27:12;;;;;;;8.30;3.42;;;;;;;;;;5025877;28;20219;-39
2023/05/27 09:29:55;;;;;;;7.70;3.10;;;;;;;;;;5033439;28;20263;-36
2023/05/27 09:32:38;;;;;;;9.32;3.70;;;;;;;;;;5033244;28;20216;-41
2023/05/27 09:43:12;;;;;;;10.27;4.53;;;;;;;;;;5034568;28;20277;-28
2023/05/27 09:45:56;;;;;;;4.85;3.22;;;;;;;;;;5032856;28;20319;-31
2023/05/27 09:48:42;;;;;;;7.80;3.58;;;;;;;;;;5032671;28;20211;-28
2023/05/27 09:54:38;;;;;;;7.70;3.88;;;;;;;;;;5035078;28;20264;-29
2023/05/27 10:00:44;;;;;;;7.70;3.60;;;;;;;;;;5001872;28;20293;-30
2023/05/27 10:03:37;;;;;;;7.72;4.20;;;;;;;;;;5020647;28;20215;-29
2023/05/27 10:09:26;;;;;;;7.90;3.83;;;;;;;;;;5020977;28;20334;-29
2023/05/27 10:18:42;;;;;;;7.50;3.88;;;;;;;;;;5018212;28;20207;-30
2023/05/27 10:21:33;;;;;;;8.60;4.07;;;;;;;;;;5008264;28;20235;-30
2023/05/27 10:24:26;;;;;;;6.13;3.53;;;;;;;;;;5013458;28;20321;-31
2023/05/27 10:27:23;;;;;;;5.90;3.60;;;;;;;;;;5041881;22;20234;-29
2023/05/27 10:30:13;;;;;;;6.82;3.40;;;;;;;;;;5055583;28;20559;-31
2023/05/27 10:33:08;;;;;;;7.18;4.13;;;;;;;;;;5052623;28;20483;-30
2023/05/27 10:47:36;;;;;;;5.97;3.20;;;;;;;;;;5061863;22;20309;-32
2023/05/27 10:50:42;;;;;;;9.13;4.00;;;;;;;;;;5054031;28;20226;-31
2023/05/27 10:53:27;;;;;;;10.88;3.72;;;;;;;;;;5000948;28;20212;-31
2023/05/27 10:59:08;;;;;;;8.25;3.72;;;;;;;;;;5030023;28;20213;-31
2023/05/27 11:10:40;;;;;;;;;;;;;;;;;;;;;
2023/05/27 11:22:44;;;;;;;6.28;3.15;;;;;;;;;;5029722;28;20202;-30
2023/05/27 11:28:06;;;;;;;9.52;3.70;;;;;;;;;;5033200;28;20271;-31
2023/05/27 11:30:50;;;;;;;4.55;3.60;;;;;;;;;;5033022;28;20213;-30
2023/05/27 11:33:33;;;;;;;7.13;4.25;;;;;;;;;;5029117;28;20664;-29
2023/05/27 11:36:30;;;;;;;6.25;4.00;;;;;;;;;;5032464;28;20222;-30
2023/05/27 11:42:33;;;;;;;8.18;3.63;;;;;;;;;;5034219;28;20210;-29
2023/05/27 11:45:17;;;;;;;7.45;4.00;;;;;;;;;;5032432;28;20264;-29
2023/05/27 11:51:11;;;;;;;5.38;3.58;;;;;;;;;;4991055;28;20198;-31
2023/05/27 11:57:06;;;;;;;8.18;4.30;;;;;;;;;;5031543;28;20300;-28
2023/05/27 12:03:17;;;;;;;6.45;4.03;;;;;;;;;;5024376;28;20245;-31
2023/05/27 12:06:17;;;;;;;7.38;4.40;;;;;;;;;;5026159;28;20229;-32
2023/05/27 12:08:52;;;;;;;8.40;3.53;;;;;;;;;;5018345;28;20219;-26
2023/05/27 12:11:21;;;;;;;9.65;3.85;;;;;;;;;;5026713;28;20289;-28
2023/05/27 12:16:58;;;;;;;8.32;3.55;;;;;;;;;;5021839;28;20239;-31
2023/05/27 12:19:34;;;;;;;6.75;3.72;;;;;;;;;;5032661;28;20199;-30
2023/05/27 12:22:09;;;;;;;5.82;3.90;;;;;;;;;;5032947;28;20377;-31
2023/05/27 12:24:52;;;;;;;6.70;3.53;;;;;;;;;;5022797;28;20677;-29
2023/05/27 12:27:31;;;;;;;7.82;3.85;;;;;;;;;;5027351;28;20231;-31
2023/05/27 12:30:30;;;;;;;6.82;3.53;;;;;;;;;;5284493;22;20722;-31
2023/05/27 12:35:44;;;;;;;6.32;4.00;;;;;;;;;;5067687;22;20315;-30
2023/05/27 12:38:15;;;;;;;7.47;3.78;;;;;;;;;;4985915;28;20284;-31
2023/05/27 12:40:52;;;;;;;6.95;3.47;;;;;;;;;;4993422;28;20196;-29
2023/05/27 12:43:34;;;;;;;6.32;3.67;;;;;;;;;;4990635;28;20208;-28
2023/05/27 12:46:03;;;;;;;7.80;4.10;;;;;;;;;;4987223;28;20259;-31
2023/05/27 12:54:26;;;;;;;53.28;40.60;;;;;;;;;;4992045;28;20649;-29
2023/05/27 12:57:04;;;;;;;13.73;6.90;;;;;;;;;;4982213;28;20653;-31
2023/05/27 12:59:37;;;;;;;9.05;4.38;;;;;;;;;;4981170;28;20210;-30
2023/05/27 13:02:44;;;;;;;10.65;5.38;;;;;;;;;;4978592;28;20217;-30
2023/05/27 13:05:21;;;;;;;6.65;3.63;;;;;;;;;;4977602;28;20209;-31
2023/05/27 13:08:14;;;;;;;8.60;4.57;;;;;;;;;;4996033;28;20226;-31
2023/05/27 13:10:53;;;;;;;6.70;3.90;;;;;;;;;;4992326;28;20253;-28
2023/05/27 13:13:38;;;;;;;4.60;3.85;;;;;;;;;;4990870;28;20206;-29
2023/05/27 13:16:13;;;;;;;7.93;4.32;;;;;;;;;;4990626;28;20222;-31
2023/05/27 13:18:52;;;;;;;5.30;3.35;;;;;;;;;;4995876;28;20203;-30
2023/05/27 13:21:57;;;;;;;9.98;3.58;;;;;;;;;;4996573;28;20661;-30
2023/05/27 13:24:33;;;;;;;5.30;3.72;;;;;;;;;;4995271;28;20213;-31
2023/05/27 13:27:03;;;;;;;7.32;3.80;;;;;;;;;;4987854;28;20233;-30
2023/05/27 13:29:35;;;;;;;5.65;3.78;;;;;;;;;;4994036;28;20644;-31
2023/05/27 13:32:18;;;;;;;8.27;3.95;;;;;;;;;;4994840;28;20206;-30
2023/05/27 13:40:27;;;;;;;5.28;3.30;;;;;;;;;;5040346;28;20208;-29
2023/05/27 13:43:11;;;;;;;6.45;3.83;;;;;;;;;;5055607;28;20216;-30
2023/05/27 13:48:55;;;;;;;10.25;3.80;;;;;;;;;;5019162;28;20212;-28
2023/05/27 13:54:35;;;;;;;4.07;3.17;;;;;;;;;;5026329;28;20222;-31
2023/05/27 13:57:23;;;;;;;7.25;3.20;;;;;;;;;;5012261;28;20678;-31
2023/05/27 13:59:59;;;;;;;4.60;2.92;;;;;;;;;;5014703;28;20211;-31
2023/05/27 14:02:33;;;;;;;4.47;2.83;;;;;;;;;;5018691;28;20215;-31
2023/05/27 14:05:01;;;;;;;6.95;2.90;;;;;;;;;;5016324;28;20205;-31
2023/05/27 14:07:56;;;;;;;5.88;3.30;;;;;;;;;;5035144;28;20312;-30
2023/05/27 14:10:44;;;;;;;7.68;3.30;;;;;;;;;;5017377;28;20221;-31
2023/05/27 14:19:04;;;;;;;6.85;3.30;;;;;;;;;;5014245;28;20242;-32
2023/05/27 14:21:39;;;;;;;8.88;3.08;;;;;;;;;;5030082;28;20215;-31
2023/05/27 14:26:59;;;;;;;4.88;2.83;;;;;;;;;;5198591;22;20587;-30
2023/05/27 14:30:09;;;;;;;6.53;2.53;;;;;;;;;;5055184;28;20232;-28
2023/05/27 14:32:57;;;;;;;5.20;2.70;;;;;;;;;;5035324;28;20211;-30
2023/05/27 14:35:30;;;;;;;6.50;2.83;;;;;;;;;;5071372;22;20211;-28
2023/05/27 14:38:22;;;;;;;4.30;2.45;;;;;;;;;;5014034;28;20258;-29
2023/05/27 14:40:49;;;;;;;7.05;2.88;;;;;;;;;;5213693;22;20237;-35
2023/05/27 14:43:17;;;;;;;6.65;2.75;;;;;;;;;;5023365;28;20221;-33
2023/05/27 14:45:44;;;;;;;4.95;2.75;;;;;;;;;;5028520;28;20293;-34
2023/05/27 14:48:12;;;;;;;5.68;2.95;;;;;;;;;;5028076;28;20240;-31
2023/05/27 14:50:39;;;;;;;5.03;2.70;;;;;;;;;;5031166;28;20597;-30
2023/05/27 14:53:07;;;;;;;7.60;2.78;;;;;;;;;;5031600;28;20219;-30
2023/05/27 14:55:35;;;;;;;4.50;2.90;;;;;;;;;;5022731;28;20231;-34
2023/05/27 14:58:04;;;;;;;7.65;3.00;;;;;;;;;;5033668;28;20219;-30
2023/05/27 15:00:31;;;;;;;4.72;2.80;;;;;;;;;;5029202;28;20213;-30
2023/05/27 15:02:58;;;;;;;4.00;2.50;;;;;;;;;;5030007;28;20224;-34
2023/05/27 15:05:26;;;;;;;6.10;2.78;;;;;;;;;;5024523;28;20906;-32
2023/05/27 15:07:53;;;;;;;6.13;2.55;;;;;;;;;;5032939;28;20228;-32
2023/05/27 15:10:21;;;;;;;7.72;3.45;;;;;;;;;;5033286;28;20200;-31
2023/05/27 15:12:48;;;;;;;4.75;2.60;;;;;;;;;;5025495;28;20217;-30
2023/05/27 15:15:16;;;;;;;6.00;2.95;;;;;;;;;;5027234;28;20211;-30
2023/05/27 15:17:45;;;;;;;5.43;2.92;;;;;;;;;;5018933;28;20212;-32
2023/05/27 15:20:12;;;;;;;5.68;3.13;;;;;;;;;;5032534;28;20200;-33
2023/05/27 15:22:41;;;;;;;4.70;2.65;;;;;;;;;;5032543;28;20217;-32
2023/05/27 15:25:08;;;;;;;7.03;2.50;;;;;;;;;;5023009;28;20233;-33
2023/05/27 15:27:50;;;;;;;4.63;3.03;;;;;;;;;;5127376;27;20537;-43
2023/05/27 15:30:17;;;;;;;5.13;3.00;;;;;;;;;;5121604;27;20209;-41
2023/05/27 15:32:44;;;;;;;5.80;3.13;;;;;;;;;;5106931;28;20202;-41
2023/05/27 15:35:11;;;;;;;7.00;3.15;;;;;;;;;;5122292;28;20210;-40
2023/05/27 15:37:40;;;;;;;4.30;2.50;;;;;;;;;;5112664;27;20198;-38
2023/05/27 15:40:07;;;;;;;5.50;2.40;;;;;;;;;;5102829;28;20198;-42
2023/05/27 15:42:35;;;;;;;5.90;2.70;;;;;;;;;;5106616;28;20202;-43
2023/05/27 15:45:03;;;;;;;6.95;2.97;;;;;;;;;;5109899;28;20264;-37
2023/05/27 15:47:30;;;;;;;4.10;2.58;;;;;;;;;;5114288;28;20228;-38
2023/05/27 15:49:57;;;;;;;5.78;2.67;;;;;;;;;;5108992;28;20206;-39
2023/05/27 15:52:25;;;;;;;4.65;2.50;;;;;;;;;;5108711;28;20204;-40
2023/05/27 15:54:52;;;;;;;5.63;3.03;;;;;;;;;;5111484;27;20216;-40
2023/05/27 15:57:19;;;;;;;6.65;2.83;;;;;;;;;;5107106;28;20375;-37
2023/05/27 15:59:47;;;;;;;6.65;3.17;;;;;;;;;;5097680;28;20213;-38
2023/05/27 16:02:16;;;;;;;6.93;2.72;;;;;;;;;;5096221;27;20217;-40
2023/05/27 16:04:43;;;;;;;3.65;2.40;;;;;;;;;;5115721;27;20217;-39
2023/05/27 16:07:10;;;;;;;7.03;2.75;;;;;;;;;;5106289;28;20240;-36
2023/05/27 16:09:37;;;;;;;5.00;2.55;;;;;;;;;;5103293;28;20206;-38
2023/05/27 16:12:06;;;;;;;4.63;2.90;;;;;;;;;;5107598;28;20208;-43
2023/05/27 16:14:33;;;;;;;4.68;2.50;;;;;;;;;;5105801;28;20293;-40
2023/05/27 16:17:01;;;;;;;3.83;2.72;;;;;;;;;;5101094;28;20296;-36
2023/05/27 16:19:29;;;;;;;5.78;2.80;;;;;;;;;;5115426;27;20202;-37
2023/05/27 16:21:56;;;;;;;5.20;2.65;;;;;;;;;;5124775;28;20205;-41
2023/05/27 16:24:23;;;;;;;9.65;2.92;;;;;;;;;;5112237;27;20222;-38
2023/05/27 16:26:51;;;;;;;5.28;2.67;;;;;;;;;;5108529;28;20236;-40
2023/05/27 16:29:18;;;;;;;4.53;2.72;;;;;;;;;;5126459;27;20200;-37
2023/05/27 16:31:45;;;;;;;4.13;2.47;;;;;;;;;;5104544;27;20562;-39
2023/05/27 16:34:12;;;;;;;5.63;2.97;;;;;;;;;;5113379;28;20211;-39
2023/05/27 16:36:40;;;;;;;6.47;3.25;;;;;;;;;;5122084;28;20218;-42
2023/05/27 16:39:07;;;;;;;6.15;3.20;;;;;;;;;;5101052;27;20198;-39
2023/05/27 16:41:34;;;;;;;5.50;2.72;;;;;;;;;;5101159;28;20205;-38
2023/05/27 16:44:02;;;;;;;5.90;3.22;;;;;;;;;;5114786;28;20214;-40
2023/05/27 16:46:29;;;;;;;5.07;2.85;;;;;;;;;;5096889;28;20230;-40
2023/05/27 16:48:56;;;;;;;4.63;2.45;;;;;;;;;;5102741;28;20213;-39
2023/05/27 16:51:23;;;;;;;6.07;2.65;;;;;;;;;;5098605;28;20214;-33
2023/05/27 16:53:52;;;;;;;5.20;2.47;;;;;;;;;;5091739;28;20226;-42
2023/05/27 16:56:19;;;;;;;4.90;2.53;;;;;;;;;;5086098;28;20214;-39
2023/05/27 16:58:46;;;;;;;3.33;2.40;;;;;;;;;;5083409;28;20294;-41
2023/05/27 17:01:13;;;;;;;4.13;2.67;;;;;;;;;;5084596;28;20209;-35
2023/05/27 17:03:40;;;;;;;5.72;2.78;;;;;;;;;;5087845;28;20489;-39
2023/05/27 17:06:07;;;;;;;4.78;2.85;;;;;;;;;;5095198;28;20217;-39
2023/05/27 17:08:34;;;;;;;3.22;2.45;;;;;;;;;;5112107;28;20209;-41
2023/05/27 17:11:03;;;;;;;10.75;2.35;;;;;;;;;;5083220;28;20214;-37
2023/05/27 17:13:30;;;;;;;4.40;2.60;;;;;;;;;;5087810;28;20200;-41
2023/05/27 17:15:57;;;;;;;4.63;2.58;;;;;;;;;;5102339;28;20712;-40
2023/05/27 17:18:24;;;;;;;4.63;2.30;;;;;;;;;;5090457;28;20201;-38
2023/05/27 17:20:51;;;;;;;5.88;3.00;;;;;;;;;;5100625;28;20255;-38
2023/05/27 17:23:18;;;;;;;5.38;2.70;;;;;;;;;;5111578;28;20216;-40
2023/05/27 17:25:46;;;;;;;5.07;2.53;;;;;;;;;;5095841;28;20235;-39
2023/05/27 17:28:14;;;;;;;5.80;2.45;;;;;;;;;;5080129;27;20239;-37
2023/05/27 17:30:41;;;;;;;5.35;2.30;;;;;;;;;;5093389;28;20207;-35
2023/05/27 17:33:08;;;;;;;4.65;2.60;;;;;;;;;;5086818;28;20252;-40
2023/05/27 17:35:36;;;;;;;3.92;2.55;;;;;;;;;;5109283;28;20220;-36
2023/05/27 17:38:04;;;;;;;4.30;2.75;;;;;;;;;;5114525;28;20205;-41
2023/05/27 17:40:31;;;;;;;4.65;2.30;;;;;;;;;;5094893;28;20201;-39
2023/05/27 17:42:58;;;;;;;3.78;2.40;;;;;;;;;;5101840;28;20208;-36
2023/05/27 17:45:26;;;;;;;4.32;2.28;;;;;;;;;;5105559;28;20228;-40
2023/05/27 17:47:54;;;;;;;5.13;2.58;;;;;;;;;;5098766;28;20690;-36
2023/05/27 17:50:21;;;;;;;5.55;2.55;;;;;;;;;;5099014;28;20208;-38
2023/05/27 17:52:48;;;;;;;3.35;2.53;;;;;;;;;;5093809;28;20209;-37
2023/05/27 17:55:15;;;;;;;4.40;2.20;;;;;;;;;;5090297;28;20211;-41
2023/05/27 17:57:42;;;;;;;3.78;2.92;;;;;;;;;;5092805;28;20212;-40
2023/05/27 18:00:11;;;;;;;7.47;2.70;;;;;;;;;;5100955;28;20193;-36
2023/05/27 18:02:39;;;;;;;4.07;2.58;;;;;;;;;;5079326;28;20205;-41
2023/05/27 18:05:07;;;;;;;4.07;2.33;;;;;;;;;;5102069;28;20201;-38
2023/05/27 18:07:34;;;;;;;5.88;2.97;;;;;;;;;;5111498;28;20224;-41
2023/05/27 18:10:01;;;;;;;4.65;2.75;;;;;;;;;;5088153;28;20209;-41
2023/05/27 18:12:28;;;;;;;6.70;2.72;;;;;;;;;;5098661;28;20200;-34
2023/05/27 18:14:56;;;;;;;3.97;2.47;;;;;;;;;;5108834;28;20287;-43
2023/05/27 18:17:23;;;;;;;5.78;2.47;;;;;;;;;;5093753;28;20243;-40
2023/05/27 18:19:51;;;;;;;5.00;2.35;;;;;;;;;;5099684;28;20237;-42
2023/05/27 18:22:18;;;;;;;4.00;2.42;;;;;;;;;;5111153;28;20229;-39
2023/05/27 18:24:46;;;;;;;5.78;2.70;;;;;;;;;;5103815;28;20287;-35
2023/05/27 18:27:13;;;;;;;5.93;2.20;;;;;;;;;;5095214;28;20223;-38
2023/05/27 18:29:40;;;;;;;3.55;2.47;;;;;;;;;;5093809;28;20515;-41
2023/05/27 18:32:07;;;;;;;4.25;2.30;;;;;;;;;;5084021;28;20196;-42
2023/05/27 18:34:34;;;;;;;4.20;2.47;;;;;;;;;;5099851;28;20209;-35
2023/05/27 18:37:03;;;;;;;4.78;2.50;;;;;;;;;;5091341;28;20709;-41
2023/05/27 18:39:30;;;;;;;7.13;2.70;;;;;;;;;;5089360;28;20227;-40
2023/05/27 18:41:58;;;;;;;4.50;2.80;;;;;;;;;;5094114;28;20200;-42
2023/05/27 18:44:25;;;;;;;3.60;2.15;;;;;;;;;;5105650;28;20291;-38
2023/05/27 18:46:52;;;;;;;5.32;2.40;;;;;;;;;;5092633;28;20224;-37
2023/05/27 18:49:22;;;;;;;4.57;2.28;;;;;;;;;;5100654;28;20214;-37
2023/05/27 18:51:49;;;;;;;4.05;2.70;;;;;;;;;;5092649;28;20208;-39
2023/05/27 18:54:18;;;;;;;6.80;2.60;;;;;;;;;;5089469;28;20217;-37
2023/05/27 18:56:45;;;;;;;2.97;2.40;;;;;;;;;;5085853;28;20228;-39
2023/05/27 18:59:12;;;;;;;5.88;2.00;;;;;;;;;;5089460;28;20563;-39
2023/05/27 19:01:40;;;;;;;3.42;2.78;;;;;;;;;;5079979;28;20213;-39
2023/05/27 19:04:08;;;;;;;5.45;3.00;;;;;;;;;;5095410;28;20200;-38
2023/05/27 19:06:35;;;;;;;5.03;3.08;;;;;;;;;;5089583;28;20228;-39
2023/05/27 19:09:02;;;;;;;7.35;3.42;;;;;;;;;;5090071;28;20200;-42
2023/05/27 19:11:31;;;;;;;5.05;3.28;;;;;;;;;;5075776;28;20200;-40
2023/05/27 19:13:58;;;;;;;5.78;3.20;;;;;;;;;;5099692;28;20199;-40
2023/05/27 19:16:25;;;;;;;5.72;3.20;;;;;;;;;;5097140;28;20669;-37
2023/05/27 19:18:53;;;;;;;6.03;3.10;;;;;;;;;;5092212;28;20203;-40
2023/05/27 19:21:20;;;;;;;7.82;3.00;;;;;;;;;;5109952;28;20227;-41
2023/05/27 19:23:47;;;;;;;3.92;2.55;;;;;;;;;;5110228;28;20203;-39
2023/05/27 19:26:14;;;;;;;3.13;2.57;;;;;;;;;;5084717;28;20236;-42
2023/05/27 19:28:44;;;;;;;5.38;3.05;;;;;;;;;;5105760;28;20247;-40
2023/05/27 19:31:12;;;;;;;4.30;2.83;;;;;;;;;;5096770;28;20212;-39